createdAt,value
2023-04-29T00:01:22.996Z,12.20
2023-04-29T00:03:29.212Z,12.10
2023-04-29T00:05:32.552Z,12.10
2023-04-29T00:07:36.415Z,12.10
2023-04-29T00:09:40.511Z,12.10
2023-04-29T00:11:43.248Z,12.00
2023-04-29T00:13:46.007Z,12.10
2023-04-29T00:15:49.005Z,12.00
2023-04-29T00:17:51.782Z,12.00
2023-04-29T00:19:54.870Z,12.00
2023-04-29T00:21:57.786Z,12.00
2023-04-29T00:24:00.877Z,12.00
2023-04-29T00:26:05.044Z,12.00
2023-04-29T00:28:07.940Z,11.90
2023-04-29T00:30:11.308Z,11.90
2023-04-29T00:32:14.046Z,11.90
2023-04-29T00:34:16.777Z,11.90
2023-04-29T00:36:19.569Z,11.90
2023-04-29T00:38:22.307Z,11.90
2023-04-29T00:40:25.056Z,11.90
2023-04-29T00:42:29.192Z,11.90
2023-04-29T00:44:31.919Z,11.90
2023-04-29T00:46:34.904Z,11.90
2023-04-29T00:48:37.774Z,11.90
2023-04-29T00:50:41.032Z,11.90
2023-04-29T00:52:43.790Z,11.80
2023-04-29T00:54:46.538Z,11.80
2023-04-29T00:56:49.286Z,11.80
2023-04-29T00:58:53.403Z,11.80
2023-04-29T01:00:56.477Z,11.80
2023-04-29T01:02:59.851Z,11.70
2023-04-29T01:05:02.826Z,11.80
2023-04-29T01:07:08.891Z,11.70
2023-04-29T01:09:24.835Z,11.70
2023-04-29T01:11:29.909Z,11.70
2023-04-29T01:13:36.191Z,11.70
2023-04-29T01:15:45.494Z,11.70
2023-04-29T01:17:51.592Z,11.60
2023-04-29T01:19:56.907Z,11.60
2023-04-29T01:21:59.681Z,11.60
2023-04-29T01:24:03.882Z,11.50
2023-04-29T01:26:08.251Z,11.60
2023-04-29T01:28:20.003Z,11.60
2023-04-29T01:30:27.168Z,11.60
2023-04-29T01:32:38.716Z,11.50
2023-04-29T01:34:45.486Z,11.50
2023-04-29T01:36:52.452Z,11.60
2023-04-29T01:39:01.510Z,11.50
2023-04-29T01:41:11.129Z,11.50
2023-04-29T01:43:13.961Z,11.50
2023-04-29T01:45:17.560Z,11.50
2023-04-29T01:47:20.294Z,11.50
2023-04-29T01:49:23.617Z,11.50
2023-04-29T01:51:26.473Z,11.50
2023-04-29T01:53:29.246Z,11.50
2023-04-29T01:55:32.025Z,11.50
2023-04-29T01:57:36.365Z,11.40
2023-04-29T01:59:39.190Z,11.50
2023-04-29T02:01:42.152Z,11.40
2023-04-29T02:03:45.751Z,11.40
2023-04-29T02:05:50.444Z,11.40
2023-04-29T02:07:53.226Z,11.40
2023-04-29T02:09:56.163Z,11.40
2023-04-29T02:11:58.948Z,11.40
2023-04-29T02:14:03.010Z,11.40
2023-04-29T02:16:09.489Z,11.40
2023-04-29T02:18:12.377Z,11.40
2023-04-29T02:20:15.370Z,11.40
2023-04-29T02:22:18.144Z,11.40
2023-04-29T02:24:20.887Z,11.40
2023-04-29T02:26:23.722Z,11.40
2023-04-29T02:28:26.704Z,11.30
2023-04-29T02:30:30.847Z,11.30
2023-04-29T02:32:33.783Z,11.30
2023-04-29T02:34:36.574Z,11.20
2023-04-29T02:36:39.440Z,11.20
2023-04-29T02:38:42.174Z,11.20
2023-04-29T02:40:45.123Z,11.10
2023-04-29T02:42:47.876Z,11.10
2023-04-29T02:44:50.637Z,11.00
2023-04-29T02:46:54.742Z,11.00
2023-04-29T02:48:57.504Z,11.00
2023-04-29T02:51:00.276Z,10.90
2023-04-29T02:53:03.037Z,10.90
2023-04-29T02:55:06.549Z,10.90
2023-04-29T02:57:09.326Z,10.80
2023-04-29T02:59:12.109Z,10.80
2023-04-29T03:01:14.897Z,10.80
2023-04-29T03:03:19.462Z,10.80
2023-04-29T03:05:22.349Z,10.80
2023-04-29T03:07:25.155Z,10.70
2023-04-29T03:09:28.186Z,10.70
2023-04-29T03:11:30.956Z,10.70
2023-04-29T03:13:33.721Z,10.70
2023-04-29T03:15:36.779Z,10.70
2023-04-29T03:17:39.740Z,10.60
2023-04-29T03:19:43.869Z,10.60
2023-04-29T03:21:46.659Z,10.60
2023-04-29T03:23:49.564Z,10.70
2023-04-29T03:25:53.113Z,10.60
2023-04-29T03:27:55.931Z,10.60
2023-04-29T03:29:58.784Z,10.60
2023-04-29T03:32:02.645Z,10.60
2023-04-29T03:34:05.409Z,10.60
2023-04-29T03:36:10.587Z,10.60
2023-04-29T03:38:13.365Z,10.50
2023-04-29T03:40:16.280Z,10.60
2023-04-29T03:42:19.074Z,10.50
2023-04-29T03:44:21.876Z,10.50
2023-04-29T03:46:24.801Z,10.50
2023-04-29T03:48:27.648Z,10.40
2023-04-29T03:50:30.462Z,10.40
2023-04-29T03:52:36.375Z,10.40
2023-04-29T03:54:39.161Z,10.40
2023-04-29T03:56:42.070Z,10.40
2023-04-29T03:58:44.939Z,10.40
2023-04-29T04:00:47.797Z,10.40
2023-04-29T04:02:50.723Z,10.40
2023-04-29T04:04:55.154Z,10.30
2023-04-29T04:06:58.105Z,10.30
2023-04-29T04:09:02.211Z,10.40
2023-04-29T04:11:05.017Z,10.30
2023-04-29T04:13:07.807Z,10.30
2023-04-29T04:15:11.258Z,10.40
2023-04-29T04:17:14.041Z,10.30
2023-04-29T04:19:16.794Z,10.40
2023-04-29T04:21:19.585Z,10.40
2023-04-29T04:23:22.369Z,10.40
2023-04-29T04:25:26.551Z,10.40
2023-04-29T04:27:29.432Z,10.40
2023-04-29T04:29:32.189Z,10.40
2023-04-29T04:31:35.009Z,10.30
2023-04-29T04:33:37.811Z,10.30
2023-04-29T04:35:40.604Z,10.30
2023-04-29T04:37:43.387Z,10.20
2023-04-29T04:39:46.360Z,10.30
2023-04-29T04:41:50.550Z,10.30
2023-04-29T04:43:53.318Z,10.30
2023-04-29T04:45:57.375Z,10.30
2023-04-29T04:48:00.319Z,10.20
2023-04-29T04:50:04.316Z,10.20
2023-04-29T04:52:07.134Z,10.20
2023-04-29T04:54:09.912Z,10.20
2023-04-29T04:56:12.708Z,10.20
2023-04-29T04:58:16.944Z,10.20
2023-04-29T05:00:19.827Z,10.20
2023-04-29T05:02:22.815Z,10.20
2023-04-29T05:04:25.862Z,10.20
2023-04-29T05:06:28.729Z,10.10
2023-04-29T05:08:31.484Z,10.10
2023-04-29T05:10:37.243Z,10.10
2023-04-29T05:12:40.001Z,10.10
2023-04-29T05:14:44.095Z,10.10
2023-04-29T05:16:49.102Z,10.10
2023-04-29T05:18:52.073Z,10.10
2023-04-29T05:20:54.863Z,10.10
2023-04-29T05:22:57.616Z,10.20
2023-04-29T05:25:03.185Z,10.20
2023-04-29T05:27:05.978Z,10.20
2023-04-29T05:29:08.746Z,10.20
2023-04-29T05:31:13.001Z,10.20
2023-04-29T05:33:15.828Z,10.20
2023-04-29T05:35:18.605Z,10.20
2023-04-29T05:37:21.422Z,10.20
2023-04-29T05:39:24.260Z,10.10
2023-04-29T05:41:27.065Z,10.10
2023-04-29T05:43:29.838Z,10.10
2023-04-29T05:45:32.623Z,10.10
2023-04-29T05:47:36.782Z,10.10
2023-04-29T05:49:40.056Z,10.10
2023-04-29T05:51:42.815Z,10.10
2023-04-29T05:53:45.917Z,10.10
2023-04-29T05:55:51.213Z,10.10
2023-04-29T05:57:54.321Z,10.10
2023-04-29T05:59:57.669Z,10.10
2023-04-29T06:02:00.589Z,10.10
2023-04-29T06:04:04.891Z,10.10
2023-04-29T06:06:08.008Z,10.10
2023-04-29T06:08:11.426Z,10.10
2023-04-29T06:10:15.254Z,10.10
2023-04-29T06:12:18.038Z,10.10
2023-04-29T06:14:21.029Z,10.10
2023-04-29T06:16:23.837Z,10.10
2023-04-29T06:18:26.693Z,10.20
2023-04-29T06:20:30.856Z,10.30
2023-04-29T06:22:33.659Z,10.40
2023-04-29T06:24:36.438Z,10.40
2023-04-29T06:26:39.263Z,10.40
2023-04-29T06:28:42.161Z,10.50
2023-04-29T06:30:45.825Z,10.40
2023-04-29T06:32:48.623Z,10.50
2023-04-29T06:34:51.509Z,10.50
2023-04-29T06:36:56.347Z,10.50
2023-04-29T06:38:59.362Z,10.40
2023-04-29T06:41:02.216Z,10.40
2023-04-29T06:43:05.035Z,10.40
2023-04-29T06:45:08.708Z,10.50
2023-04-29T06:47:11.557Z,10.50
2023-04-29T06:49:14.425Z,10.50
2023-04-29T06:51:17.287Z,10.60
2023-04-29T06:53:21.519Z,10.60
2023-04-29T06:55:24.342Z,10.70
2023-04-29T06:57:27.144Z,10.70
2023-04-29T06:59:29.901Z,10.70
2023-04-29T07:01:32.716Z,10.80
2023-04-29T07:03:35.630Z,10.80
2023-04-29T07:05:39.347Z,10.80
2023-04-29T07:07:42.131Z,10.90
2023-04-29T07:09:46.248Z,11.00
2023-04-29T07:11:49.039Z,11.10
2023-04-29T07:13:52.090Z,11.30
2023-04-29T07:15:54.854Z,11.50
2023-04-29T07:17:57.692Z,11.80
2023-04-29T07:20:00.854Z,12.00
2023-04-29T07:22:04.188Z,12.20
2023-04-29T07:24:07.407Z,12.40
2023-04-29T07:26:12.500Z,12.60
2023-04-29T07:28:15.304Z,12.80
2023-04-29T07:30:18.605Z,12.80
2023-04-29T07:32:21.411Z,12.90
2023-04-29T07:34:24.282Z,13.00
2023-04-29T07:36:28.788Z,13.10
2023-04-29T07:38:31.703Z,13.40
2023-04-29T07:40:34.555Z,13.40
2023-04-29T07:42:38.694Z,13.40
2023-04-29T07:44:41.477Z,13.30
2023-04-29T07:46:44.357Z,13.40
2023-04-29T07:48:47.186Z,13.30
2023-04-29T07:50:50.401Z,13.50
2023-04-29T07:52:55.147Z,13.70
2023-04-29T07:54:57.922Z,13.80
2023-04-29T07:57:01.444Z,13.90
2023-04-29T07:59:05.551Z,14.20
2023-04-29T08:01:09.121Z,14.50
2023-04-29T08:03:12.287Z,15.00
2023-04-29T08:05:15.430Z,14.70
2023-04-29T08:07:18.355Z,14.40
2023-04-29T08:09:21.693Z,14.60
2023-04-29T08:11:25.389Z,14.40
2023-04-29T08:13:28.201Z,14.20
2023-04-29T08:15:32.381Z,14.20
2023-04-29T08:17:35.150Z,14.30
2023-04-29T08:19:37.932Z,14.80
2023-04-29T08:21:41.517Z,15.40
2023-04-29T08:23:44.376Z,15.40
2023-04-29T08:25:47.182Z,16.10
2023-04-29T08:27:49.980Z,16.10
2023-04-29T08:29:52.932Z,16.00
2023-04-29T08:31:57.143Z,16.10
2023-04-29T08:33:59.994Z,15.80
2023-04-29T08:36:03.663Z,15.60
2023-04-29T08:38:07.253Z,15.50
2023-04-29T08:40:10.839Z,15.40
2023-04-29T08:42:13.627Z,15.40
2023-04-29T08:44:17.331Z,15.40
2023-04-29T08:46:20.720Z,15.20
2023-04-29T08:48:25.049Z,15.10
2023-04-29T08:50:28.488Z,15.10
2023-04-29T08:52:32.171Z,15.00
2023-04-29T08:54:36.108Z,15.00
2023-04-29T08:56:38.899Z,14.90
2023-04-29T08:58:41.686Z,14.80
2023-04-29T09:00:45.076Z,14.90
2023-04-29T09:02:50.540Z,14.80
2023-04-29T09:04:59.906Z,14.70
2023-04-29T09:07:03.135Z,14.50
2023-04-29T09:09:05.919Z,14.30
2023-04-29T09:11:10.366Z,14.10
2023-04-29T09:13:24.375Z,13.90
2023-04-29T09:15:27.141Z,13.70
2023-04-29T09:17:42.853Z,13.50
2023-04-29T09:19:45.878Z,13.40
2023-04-29T09:21:55.173Z,13.40
2023-04-29T09:23:58.897Z,13.40
2023-04-29T09:26:01.705Z,13.30
2023-04-29T09:28:16.033Z,13.40
2023-04-29T09:30:19.611Z,13.40
2023-04-29T09:32:22.480Z,13.50
2023-04-29T09:34:35.738Z,13.60
2023-04-29T09:36:41.691Z,13.60
2023-04-29T09:38:56.506Z,13.80
2023-04-29T09:41:00.012Z,13.90
2023-04-29T09:43:05.250Z,13.90
2023-04-29T09:45:09.403Z,13.90
2023-04-29T09:47:13.362Z,14.00
2023-04-29T09:49:26.085Z,14.10
2023-04-29T09:51:32.377Z,14.10
2023-04-29T09:53:38.001Z,14.20
2023-04-29T09:56:00.284Z,14.40
2023-04-29T09:58:03.052Z,14.60
2023-04-29T10:00:07.081Z,14.70
2023-04-29T10:02:15.370Z,15.00
2023-04-29T10:04:18.872Z,15.30
2023-04-29T10:06:22.171Z,15.50
2023-04-29T10:08:24.915Z,15.40
2023-04-29T10:10:30.303Z,16.10
2023-04-29T10:12:35.546Z,17.00
2023-04-29T10:14:40.117Z,17.60
2023-04-29T10:16:47.768Z,18.30
2023-04-29T10:18:53.240Z,18.60
2023-04-29T10:20:56.228Z,19.10
2023-04-29T10:22:59.888Z,19.60
2023-04-29T10:25:02.931Z,19.50
2023-04-29T10:27:06.499Z,19.50
2023-04-29T10:29:10.623Z,18.50
2023-04-29T10:31:13.599Z,17.80
2023-04-29T10:33:16.572Z,17.40
2023-04-29T10:35:22.191Z,17.10
2023-04-29T10:37:24.987Z,17.00
2023-04-29T10:39:32.717Z,17.40
2023-04-29T10:41:37.335Z,17.10
2023-04-29T10:43:40.085Z,17.00
2023-04-29T10:45:44.340Z,16.70
2023-04-29T10:48:14.764Z,16.60
2023-04-29T10:50:17.581Z,16.60
2023-04-29T10:52:20.368Z,16.70
2023-04-29T10:54:25.965Z,16.40
2023-04-29T10:56:45.443Z,16.30
2023-04-29T10:58:48.240Z,16.10
2023-04-29T11:00:52.385Z,15.80
2023-04-29T11:02:55.304Z,15.70
2023-04-29T11:05:11.197Z,15.60
2023-04-29T11:07:27.185Z,15.40
2023-04-29T11:09:30.549Z,15.20
2023-04-29T11:12:05.570Z,15.30
2023-04-29T11:14:09.577Z,15.30
2023-04-29T11:16:13.919Z,15.40
2023-04-29T11:18:16.725Z,15.90
2023-04-29T11:20:19.968Z,15.90
2023-04-29T11:22:30.339Z,16.70
2023-04-29T11:24:33.171Z,17.10
2023-04-29T11:26:36.039Z,18.60
2023-04-29T11:28:38.861Z,19.20
2023-04-29T11:30:41.636Z,19.10
2023-04-29T11:32:45.904Z,18.60
2023-04-29T11:34:48.823Z,18.00
2023-04-29T11:36:51.991Z,17.60
2023-04-29T11:38:54.815Z,17.20
2023-04-29T11:40:57.796Z,17.10
2023-04-29T11:43:00.584Z,16.80
2023-04-29T11:45:03.944Z,16.50
2023-04-29T11:47:06.844Z,17.40
2023-04-29T11:49:10.951Z,17.10
2023-04-29T11:51:13.724Z,18.00
2023-04-29T11:53:16.536Z,18.60
2023-04-29T11:55:19.777Z,18.50
2023-04-29T11:57:22.577Z,18.50
2023-04-29T11:59:25.566Z,19.10
2023-04-29T12:01:28.341Z,18.50
2023-04-29T12:03:32.334Z,18.10
2023-04-29T12:05:36.609Z,17.60
2023-04-29T12:07:40.117Z,17.10
2023-04-29T12:09:44.216Z,16.70
2023-04-29T12:11:47.812Z,16.30
2023-04-29T12:13:50.603Z,16.10
2023-04-29T12:15:53.671Z,15.90
2023-04-29T12:17:56.740Z,15.80
2023-04-29T12:19:59.588Z,15.70
2023-04-29T12:22:04.849Z,15.70
2023-04-29T12:24:08.367Z,15.70
2023-04-29T12:26:11.119Z,15.70
2023-04-29T12:28:13.950Z,15.70
2023-04-29T12:30:16.714Z,15.80
2023-04-29T12:32:19.948Z,15.80
2023-04-29T12:34:26.781Z,15.80
2023-04-29T12:36:29.551Z,15.80
2023-04-29T12:38:33.672Z,15.80
2023-04-29T12:40:36.428Z,16.00
2023-04-29T12:42:39.213Z,16.10
2023-04-29T12:44:41.984Z,16.20
2023-04-29T12:46:44.807Z,16.10
2023-04-29T12:48:47.630Z,16.10
2023-04-29T12:50:51.459Z,16.00
2023-04-29T12:52:54.251Z,16.10
2023-04-29T12:54:59.245Z,16.00
2023-04-29T12:57:02.722Z,16.00
2023-04-29T12:59:08.431Z,15.90
2023-04-29T13:01:12.030Z,15.90
2023-04-29T13:03:15.087Z,15.90
2023-04-29T13:05:17.947Z,15.90
2023-04-29T13:07:20.896Z,15.80
2023-04-29T13:09:23.676Z,15.80
2023-04-29T13:11:32.516Z,15.80
2023-04-29T13:13:37.024Z,15.70
2023-04-29T13:15:40.114Z,15.70
2023-04-29T13:17:42.959Z,15.60
2023-04-29T13:19:51.723Z,15.60
2023-04-29T13:21:55.093Z,15.60
2023-04-29T13:23:57.918Z,15.50
2023-04-29T13:26:01.181Z,15.50
2023-04-29T13:28:07.399Z,15.50
2023-04-29T13:30:11.123Z,15.50
2023-04-29T13:32:13.961Z,15.50
2023-04-29T13:34:16.814Z,15.50
2023-04-29T13:36:19.584Z,15.70
2023-04-29T13:38:22.946Z,15.80
2023-04-29T13:40:28.084Z,15.80
2023-04-29T13:42:35.696Z,15.90
2023-04-29T13:44:51.783Z,15.90
2023-04-29T13:46:55.750Z,15.90
2023-04-29T13:49:22.534Z,15.80
2023-04-29T13:53:56.984Z,15.80
2023-04-29T13:56:41.162Z,15.80
2023-04-29T13:58:56.133Z,15.60
2023-04-29T14:02:43.212Z,15.70
2023-04-29T14:04:46.373Z,15.80
2023-04-29T14:06:49.311Z,15.90
2023-04-29T14:08:52.085Z,15.90
2023-04-29T14:10:54.870Z,16.00
2023-04-29T14:12:57.653Z,16.00
2023-04-29T14:15:00.769Z,16.00
2023-04-29T14:17:05.039Z,16.20
2023-04-29T14:19:08.617Z,16.20
2023-04-29T14:21:11.749Z,16.40
2023-04-29T14:23:14.582Z,16.40
2023-04-29T14:25:17.762Z,16.50
2023-04-29T14:27:21.670Z,16.60
2023-04-29T14:29:24.434Z,16.70
2023-04-29T14:31:28.929Z,16.50
2023-04-29T14:33:33.293Z,16.60
2023-04-29T14:35:36.062Z,17.00
2023-04-29T14:37:38.860Z,17.00
2023-04-29T14:39:41.679Z,17.00
2023-04-29T14:41:44.461Z,16.90
2023-04-29T14:43:47.233Z,16.60
2023-04-29T14:45:50.096Z,16.50
2023-04-29T14:47:52.973Z,16.50
2023-04-29T14:49:57.348Z,16.50
2023-04-29T14:52:00.126Z,16.40
2023-04-29T14:54:02.886Z,16.50
2023-04-29T14:56:05.732Z,16.70
2023-04-29T14:58:10.229Z,16.80
2023-04-29T15:00:15.002Z,17.40
2023-04-29T15:02:18.003Z,17.50
2023-04-29T15:04:20.796Z,17.80
2023-04-29T15:06:25.042Z,18.00
2023-04-29T15:08:28.080Z,18.00
2023-04-29T15:10:30.969Z,18.00
2023-04-29T15:12:33.753Z,18.60
2023-04-29T15:14:37.024Z,18.20
2023-04-29T15:16:39.885Z,17.90
2023-04-29T15:18:45.653Z,17.90
2023-04-29T15:20:48.617Z,18.00
2023-04-29T15:22:52.740Z,17.90
2023-04-29T15:24:55.513Z,18.10
2023-04-29T15:26:58.767Z,17.80
2023-04-29T15:29:02.169Z,17.70
2023-04-29T15:31:05.539Z,17.50
2023-04-29T15:33:08.379Z,17.20
2023-04-29T15:35:12.277Z,17.40
2023-04-29T15:37:15.069Z,17.20
2023-04-29T15:39:19.212Z,17.50
2023-04-29T15:41:21.979Z,17.80
2023-04-29T15:43:24.939Z,18.00
2023-04-29T15:45:27.835Z,18.00
2023-04-29T15:47:30.700Z,18.00
2023-04-29T15:49:33.516Z,18.00
2023-04-29T15:51:36.414Z,18.00
2023-04-29T15:53:39.219Z,18.00
2023-04-29T15:55:43.377Z,18.00
2023-04-29T15:57:46.159Z,18.00
2023-04-29T15:59:48.958Z,17.90
2023-04-29T16:01:51.855Z,17.30
2023-04-29T16:03:54.969Z,17.40
2023-04-29T16:05:58.224Z,17.50
2023-04-29T16:08:01.083Z,17.40
2023-04-29T16:10:04.178Z,17.40
2023-04-29T16:12:08.535Z,17.50
2023-04-29T16:14:11.362Z,17.50
2023-04-29T16:16:14.146Z,17.40
2023-04-29T16:18:17.563Z,17.60
2023-04-29T16:20:20.535Z,17.60
2023-04-29T16:22:23.365Z,17.60
2023-04-29T16:24:26.742Z,17.40
2023-04-29T16:26:29.526Z,17.50
2023-04-29T16:28:33.872Z,17.50
2023-04-29T16:30:36.706Z,17.40
2023-04-29T16:32:41.605Z,17.20
2023-04-29T16:34:44.414Z,17.00
2023-04-29T16:36:47.287Z,17.00
2023-04-29T16:38:50.195Z,16.90
2023-04-29T16:40:52.970Z,16.70
2023-04-29T16:42:56.995Z,16.60
2023-04-29T16:45:01.125Z,16.50
2023-04-29T16:47:03.959Z,16.40
2023-04-29T16:49:07.086Z,16.30
2023-04-29T16:51:09.893Z,16.20
2023-04-29T16:53:13.496Z,16.10
2023-04-29T16:55:16.336Z,16.10
2023-04-29T16:57:19.244Z,16.00
2023-04-29T16:59:22.037Z,15.90
2023-04-29T17:01:26.203Z,15.80
2023-04-29T17:03:29.037Z,15.70
2023-04-29T17:05:31.831Z,15.60
2023-04-29T17:07:34.609Z,15.50
2023-04-29T17:09:37.364Z,15.40
2023-04-29T17:11:40.125Z,15.30
2023-04-29T17:13:44.852Z,15.30
2023-04-29T17:15:47.807Z,15.20
2023-04-29T17:17:52.680Z,15.10
2023-04-29T17:19:56.481Z,15.10
2023-04-29T17:21:59.599Z,15.00
2023-04-29T17:24:02.402Z,15.00
2023-04-29T17:26:05.314Z,14.90
2023-04-29T17:28:08.175Z,14.80
2023-04-29T17:30:11.609Z,14.80
2023-04-29T17:32:17.232Z,14.70
2023-04-29T17:34:23.931Z,14.60
2023-04-29T17:36:26.820Z,14.50
2023-04-29T17:38:29.666Z,14.50
2023-04-29T17:40:32.453Z,14.40
2023-04-29T17:42:35.242Z,14.30
2023-04-29T17:44:38.063Z,14.20
2023-04-29T17:46:40.978Z,14.20
2023-04-29T17:48:43.758Z,14.10
2023-04-29T17:50:47.905Z,14.00
2023-04-29T17:52:51.152Z,13.90
2023-04-29T17:54:54.392Z,13.80
2023-04-29T17:56:57.181Z,13.80
2023-04-29T17:58:59.957Z,13.70
2023-04-29T18:01:04.851Z,13.60
2023-04-29T18:03:07.791Z,13.60
2023-04-29T18:05:10.929Z,13.40
2023-04-29T18:07:15.041Z,13.30
2023-04-29T18:09:17.888Z,13.30
2023-04-29T18:11:21.097Z,13.20
2023-04-29T18:13:26.541Z,13.10
2023-04-29T18:15:30.089Z,13.00
2023-04-29T18:17:33.751Z,12.90
2023-04-29T18:19:36.583Z,12.90
2023-04-29T18:21:39.338Z,12.80
2023-04-29T18:23:43.458Z,12.80
2023-04-29T18:25:46.361Z,12.70
2023-04-29T18:27:49.204Z,12.60
2023-04-29T18:29:52.142Z,12.60
2023-04-29T18:31:55.643Z,12.50
2023-04-29T18:33:58.532Z,12.50
2023-04-29T18:36:01.880Z,12.40
2023-04-29T18:38:04.743Z,12.30
2023-04-29T18:40:10.508Z,12.30
2023-04-29T18:42:13.298Z,12.20
2023-04-29T18:44:16.091Z,12.10
2023-04-29T18:46:18.913Z,12.10
2023-04-29T18:48:21.912Z,12.00
2023-04-29T18:50:24.717Z,12.00
2023-04-29T18:52:27.539Z,11.90
2023-04-29T18:54:30.474Z,11.80
2023-04-29T18:56:34.602Z,11.70
2023-04-29T18:58:37.386Z,11.70
2023-04-29T19:00:40.230Z,11.60
2023-04-29T19:02:43.030Z,11.60
2023-04-29T19:04:45.930Z,11.60
2023-04-29T19:06:48.745Z,11.50
2023-04-29T19:08:51.513Z,11.40
2023-04-29T19:10:54.433Z,11.40
2023-04-29T19:12:58.561Z,11.30
2023-04-29T19:15:01.545Z,11.20
2023-04-29T19:17:04.324Z,11.20
2023-04-29T19:19:07.343Z,11.10
2023-04-29T19:21:10.158Z,11.00
2023-04-29T19:23:12.926Z,11.00
2023-04-29T19:25:15.732Z,10.90
2023-04-29T19:27:18.517Z,10.90
2023-04-29T19:29:22.641Z,10.80
2023-04-29T19:31:25.502Z,10.80
2023-04-29T19:33:28.288Z,10.80
2023-04-29T19:35:31.081Z,10.70
2023-04-29T19:37:33.847Z,10.70
2023-04-29T19:39:36.626Z,10.60
2023-04-29T19:41:39.384Z,10.60
2023-04-29T19:43:42.146Z,10.60
2023-04-29T19:45:46.296Z,10.50
2023-04-29T19:47:49.983Z,10.50
2023-04-29T19:49:53.058Z,10.40
2023-04-29T19:51:56.050Z,10.40
2023-04-29T19:54:01.493Z,10.30
2023-04-29T19:56:04.379Z,10.30
2023-04-29T19:58:07.293Z,10.30
2023-04-29T20:00:11.706Z,10.20
2023-04-29T20:02:15.844Z,10.20
2023-04-29T20:04:18.704Z,10.10
2023-04-29T20:06:21.845Z,10.10
2023-04-29T20:08:24.742Z,10.00
2023-04-29T20:10:29.900Z,10.00
2023-04-29T20:12:32.931Z,10.00
2023-04-29T20:14:36.425Z,9.90
2023-04-29T20:16:39.238Z,9.90
2023-04-29T20:18:44.007Z,9.80
2023-04-29T20:20:46.749Z,9.80
2023-04-29T20:22:49.463Z,9.80
2023-04-29T20:24:52.378Z,9.80
2023-04-29T20:26:55.089Z,9.80
2023-04-29T20:28:58.188Z,9.70
2023-04-29T20:31:01.288Z,9.70
2023-04-29T20:33:04.691Z,9.80
2023-04-29T20:35:10.656Z,9.70
2023-04-29T20:37:13.378Z,9.70
2023-04-29T20:39:18.063Z,9.70
2023-04-29T20:41:20.800Z,9.70
2023-04-29T20:43:23.614Z,9.60
2023-04-29T20:45:26.545Z,9.50
2023-04-29T20:47:30.026Z,9.50
2023-04-29T20:49:32.832Z,9.40
2023-04-29T20:51:36.876Z,9.40
2023-04-29T20:53:39.642Z,9.40
2023-04-29T20:55:42.387Z,9.30
2023-04-29T20:57:45.101Z,9.30
2023-04-29T20:59:47.850Z,9.30
2023-04-29T21:01:50.599Z,9.30
2023-04-29T21:03:53.413Z,9.20
2023-04-29T21:05:56.344Z,9.20
2023-04-29T21:08:00.578Z,9.10
2023-04-29T21:10:03.337Z,9.10
2023-04-29T21:12:06.297Z,9.10
2023-04-29T21:14:09.015Z,9.10
2023-04-29T21:16:11.782Z,9.10
2023-04-29T21:18:14.632Z,9.00
2023-04-29T21:20:18.084Z,9.10
2023-04-29T21:22:20.868Z,9.00
2023-04-29T21:24:26.830Z,9.00
2023-04-29T21:26:29.645Z,9.00
2023-04-29T21:28:32.418Z,9.00
2023-04-29T21:30:35.215Z,8.90
2023-04-29T21:32:38.106Z,9.00
2023-04-29T21:34:40.909Z,9.00
2023-04-29T21:36:44.035Z,8.90
2023-04-29T21:38:46.806Z,8.90
2023-04-29T21:40:51.106Z,8.80
2023-04-29T21:42:55.155Z,8.80
2023-04-29T21:44:59.876Z,8.70
2023-04-29T21:47:03.700Z,8.70
2023-04-29T21:49:07.384Z,8.70
2023-04-29T21:51:10.190Z,8.60
2023-04-29T21:53:15.867Z,8.60
2023-04-29T21:55:19.525Z,8.60
2023-04-29T21:57:32.150Z,8.60
2023-04-29T21:59:46.276Z,8.50
2023-04-29T22:01:49.281Z,8.50
2023-04-29T22:03:52.139Z,8.50
2023-04-29T22:05:54.956Z,8.40
2023-04-29T22:07:58.404Z,8.40
2023-04-29T22:10:01.242Z,8.30
2023-04-29T22:12:04.246Z,8.30
2023-04-29T22:14:08.353Z,8.30
2023-04-29T22:16:11.210Z,8.30
2023-04-29T22:18:14.005Z,8.20
2023-04-29T22:20:16.948Z,8.10
2023-04-29T22:22:19.735Z,8.10
2023-04-29T22:24:22.522Z,8.10
2023-04-29T22:26:25.475Z,8.10
2023-04-29T22:28:28.293Z,8.00
2023-04-29T22:30:32.416Z,8.00
2023-04-29T22:32:35.184Z,8.00
2023-04-29T22:34:38.011Z,8.00
2023-04-29T22:36:40.864Z,8.00
2023-04-29T22:38:43.631Z,8.00
2023-04-29T22:40:50.525Z,8.00
2023-04-29T22:42:53.312Z,8.10
2023-04-29T22:44:56.062Z,8.00
2023-04-29T22:47:00.197Z,8.00
2023-04-29T22:49:03.167Z,7.90
2023-04-29T22:51:06.303Z,7.90
2023-04-29T22:53:09.056Z,7.90
2023-04-29T22:55:11.866Z,7.90
2023-04-29T22:57:14.709Z,7.90
2023-04-29T22:59:17.493Z,7.90
2023-04-29T23:01:20.296Z,7.90
2023-04-29T23:03:25.457Z,7.80
2023-04-29T23:05:28.235Z,7.80
2023-04-29T23:07:31.010Z,7.80
2023-04-29T23:09:33.779Z,7.80
2023-04-29T23:11:36.571Z,7.70
2023-04-29T23:13:39.346Z,7.70
2023-04-29T23:15:42.208Z,7.70
2023-04-29T23:17:45.051Z,7.70
2023-04-29T23:19:49.172Z,7.60
2023-04-29T23:21:51.966Z,7.60
2023-04-29T23:23:54.900Z,7.60
2023-04-29T23:25:58.045Z,7.60
2023-04-29T23:28:00.830Z,7.50
2023-04-29T23:30:03.711Z,7.50
2023-04-29T23:32:06.559Z,7.50
2023-04-29T23:34:09.313Z,7.50
2023-04-29T23:36:13.462Z,7.40
2023-04-29T23:38:16.232Z,7.40
2023-04-29T23:40:19.223Z,7.40
2023-04-29T23:42:21.991Z,7.30
2023-04-29T23:44:25.142Z,7.30
2023-04-29T23:46:28.376Z,7.30
2023-04-29T23:48:31.221Z,7.20
2023-04-29T23:50:33.995Z,7.20
2023-04-29T23:52:38.116Z,7.20
2023-04-29T23:54:41.028Z,7.20
2023-04-29T23:56:43.807Z,7.20
2023-04-29T23:58:46.603Z,7.10
